createdAt,value
2018-12-11T00:01:54.097Z,101688.12
2018-12-11T00:04:22.795Z,101672.03
2018-12-11T00:06:56.573Z,101673.20
2018-12-11T00:09:27.709Z,101682.59
2018-12-11T00:11:58.641Z,101680.94
2018-12-11T00:14:33.700Z,101677.24
2018-12-11T00:17:03.158Z,101676.63
2018-12-11T00:19:36.824Z,101670.73
2018-12-11T00:22:07.122Z,101671.03
2018-12-11T00:24:36.353Z,101669.27
2018-12-11T00:27:10.331Z,101668.32
2018-12-11T00:29:38.851Z,101661.30
2018-12-11T00:32:09.806Z,101668.00
2018-12-11T00:34:43.658Z,101670.67
2018-12-11T00:37:12.116Z,101674.17
2018-12-11T00:39:47.267Z,101675.44
2018-12-11T00:42:20.837Z,101671.38
2018-12-11T00:44:53.949Z,101670.53
2018-12-11T00:47:27.031Z,101668.52
2018-12-11T00:50:00.907Z,101662.46
2018-12-11T00:52:34.808Z,101660.55
2018-12-11T00:55:20.184Z,101654.36
2018-12-11T00:57:50.810Z,101660.35
2018-12-11T01:00:21.948Z,101657.61
2018-12-11T01:02:55.931Z,101658.02
2018-12-11T01:05:25.124Z,101654.36
2018-12-11T01:07:58.587Z,101667.73
2018-12-11T01:10:29.806Z,101661.53
2018-12-11T01:13:03.511Z,101665.48
2018-12-11T01:15:35.481Z,101670.19
2018-12-11T01:18:09.148Z,101666.12
2018-12-11T01:20:40.399Z,101669.44
2018-12-11T01:23:10.709Z,101670.22
2018-12-11T01:25:44.608Z,101668.13
2018-12-11T01:28:18.046Z,101672.29
2018-12-11T01:30:48.391Z,101668.73
2018-12-11T01:33:17.388Z,101671.95
2018-12-11T01:35:56.385Z,101669.20
2018-12-11T01:38:30.264Z,101672.77
2018-12-11T01:41:01.307Z,101672.36
2018-12-11T01:43:35.137Z,101670.53
2018-12-11T01:46:09.141Z,101671.89
2018-12-11T01:48:43.132Z,101670.02
2018-12-11T01:51:15.486Z,101665.92
2018-12-11T01:53:48.825Z,101669.54
2018-12-11T01:56:21.991Z,101661.98
2018-12-11T02:01:42.092Z,101687.72
2018-12-11T02:07:07.969Z,101672.02
2018-12-11T02:09:48.039Z,101673.89
2018-12-11T02:12:38.964Z,101670.39
2018-12-11T02:18:02.096Z,101670.55
2018-12-11T02:20:42.143Z,101669.30
2018-12-11T02:23:31.076Z,101664.39
2018-12-11T02:26:04.860Z,101659.41
2018-12-11T02:28:32.267Z,101659.20
2018-12-11T02:31:01.074Z,101663.51
2018-12-11T02:42:21.688Z,101672.08
2018-12-11T02:44:56.765Z,101665.94
2018-12-11T02:47:27.990Z,101666.05
2018-12-11T02:50:11.947Z,101658.02
2018-12-11T02:52:41.040Z,101662.83
2018-12-11T02:55:31.465Z,101654.46
2018-12-11T02:58:05.136Z,101653.34
2018-12-11T03:03:25.203Z,101661.61
2018-12-11T03:08:57.762Z,101658.83
2018-12-11T03:11:31.549Z,101662.59
2018-12-11T03:13:58.952Z,101670.55
2018-12-11T03:16:29.915Z,101665.38
2018-12-11T03:19:16.249Z,101664.66
2018-12-11T03:22:02.568Z,101660.80
2018-12-11T03:30:31.533Z,101664.23
2018-12-11T03:33:04.757Z,101659.30
2018-12-11T03:38:30.719Z,101652.34
2018-12-11T03:41:10.978Z,101656.81
2018-12-11T03:43:48.766Z,101667.82
2018-12-11T03:46:19.888Z,101656.11
2018-12-11T03:48:53.929Z,101661.56
2018-12-11T03:57:19.038Z,101667.34
2018-12-11T03:59:46.456Z,101657.04
2018-12-11T04:02:20.044Z,101657.23
2018-12-11T04:04:53.300Z,101668.80
2018-12-11T04:07:33.365Z,101661.59
2018-12-11T04:10:04.876Z,101664.25
2018-12-11T04:12:38.487Z,101665.84
2018-12-11T04:15:12.203Z,101661.78
2018-12-11T04:17:45.608Z,101666.25
2018-12-11T04:20:14.587Z,101659.08
2018-12-11T04:22:48.372Z,101670.98
2018-12-11T04:25:22.286Z,101670.42
2018-12-11T04:27:58.175Z,101666.52
2018-12-11T04:30:31.256Z,101673.08
2018-12-11T04:33:00.460Z,101667.09
2018-12-11T04:35:29.273Z,101661.89
2018-12-11T04:38:02.952Z,101671.98
2018-12-11T04:40:33.989Z,101661.79
2018-12-11T04:43:07.924Z,101660.35
2018-12-11T04:45:41.925Z,101662.45
2018-12-11T04:48:15.196Z,101662.92
2018-12-11T04:50:45.532Z,101672.27
2018-12-11T04:53:16.661Z,101677.09
2018-12-11T04:55:50.581Z,101674.92
2018-12-11T04:58:21.141Z,101673.98
2018-12-11T05:00:51.975Z,101672.11
2018-12-11T05:03:25.986Z,101663.16
2018-12-11T05:05:56.428Z,101671.84
2018-12-11T05:08:25.343Z,101680.36
2018-12-11T05:10:56.475Z,101680.50
2018-12-11T05:13:36.925Z,101678.15
2018-12-11T05:16:07.624Z,101674.25
2018-12-11T05:18:38.552Z,101681.50
2018-12-11T05:21:07.584Z,101670.31
2018-12-11T05:23:38.600Z,101672.19
2018-12-11T05:26:09.540Z,101672.49
2018-12-11T05:28:42.642Z,101670.45
2018-12-11T05:31:13.802Z,101664.66
2018-12-11T05:33:57.449Z,101674.84
2018-12-11T05:36:30.844Z,101673.46
2018-12-11T05:39:00.127Z,101670.50
2018-12-11T05:41:33.830Z,101661.68
2018-12-11T05:44:06.971Z,101664.97
2018-12-11T05:46:37.380Z,101667.74
2018-12-11T05:49:11.276Z,101670.78
2018-12-11T05:51:45.321Z,101668.73
2018-12-11T05:54:19.200Z,101661.47
2018-12-11T05:56:52.422Z,101667.02
2018-12-11T05:59:25.763Z,101662.86
2018-12-11T06:01:56.859Z,101659.50
2018-12-11T06:04:30.760Z,101660.09
2018-12-11T06:07:04.669Z,101666.63
2018-12-11T06:09:38.709Z,101666.02
2018-12-11T06:12:12.925Z,101665.20
2018-12-11T06:14:46.589Z,101671.06
2018-12-11T06:17:20.582Z,101673.31
2018-12-11T06:19:49.806Z,101670.95
2018-12-11T06:22:23.725Z,101668.90
2018-12-11T06:24:57.592Z,101659.91
2018-12-11T06:27:37.852Z,101671.58
2018-12-11T06:30:09.713Z,101659.92
2018-12-11T06:32:39.346Z,101664.73
2018-12-11T06:35:13.169Z,101662.97
2018-12-11T06:37:55.449Z,101661.34
2018-12-11T06:43:27.926Z,101668.13
2018-12-11T06:49:00.155Z,101676.50
2018-12-11T06:51:30.910Z,101682.20
2018-12-11T06:54:01.932Z,101673.56
2018-12-11T06:56:31.995Z,101681.89
2018-12-11T06:59:02.988Z,101678.89
2018-12-11T07:04:43.435Z,101666.53
2018-12-11T07:07:22.736Z,101668.88
2018-12-11T07:10:03.326Z,101677.23
2018-12-11T07:12:33.889Z,101669.89
2018-12-11T07:15:07.911Z,101677.23
2018-12-11T07:17:41.893Z,101685.91
2018-12-11T07:20:13.157Z,101688.44
2018-12-11T07:22:46.861Z,101690.11
2018-12-11T07:25:20.777Z,101694.28
2018-12-11T07:27:54.678Z,101704.37
2018-12-11T07:30:25.005Z,101700.45
2018-12-11T07:32:58.919Z,101698.73
2018-12-11T07:35:28.044Z,101704.44
2018-12-11T07:38:01.257Z,101699.44
2018-12-11T07:40:31.680Z,101697.38
2018-12-11T07:43:10.365Z,101707.17
2018-12-11T07:45:40.768Z,101709.11
2018-12-11T07:48:14.749Z,101703.99
2018-12-11T07:50:45.062Z,101695.28
2018-12-11T07:53:16.112Z,101712.06
2018-12-11T07:55:49.925Z,101708.05
2018-12-11T07:58:23.867Z,101714.87
2018-12-11T08:00:54.495Z,101713.21
2018-12-11T08:06:19.979Z,101708.33
2018-12-11T08:08:53.819Z,101712.02
2018-12-11T08:11:24.459Z,101722.30
2018-12-11T08:13:51.836Z,101714.40
2018-12-11T08:16:19.672Z,101703.86
2018-12-11T08:18:47.052Z,101703.58
2018-12-11T08:21:20.941Z,101719.05
2018-12-11T08:23:54.158Z,101713.08
2018-12-11T08:26:35.054Z,101715.25
2018-12-11T08:29:08.373Z,101717.66
2018-12-11T08:31:39.656Z,101716.16
2018-12-11T08:34:10.880Z,101718.91
2018-12-11T08:36:44.115Z,101711.78
2018-12-11T08:39:18.062Z,101714.02
2018-12-11T08:41:49.331Z,101712.00
2018-12-11T08:44:22.950Z,101707.82
2018-12-11T08:46:56.744Z,101717.55
2018-12-11T08:49:25.274Z,101716.06
2018-12-11T08:52:02.388Z,101716.41
2018-12-11T08:54:35.491Z,101722.33
2018-12-11T08:57:08.724Z,101715.18
2018-12-11T08:59:39.897Z,101716.91
2018-12-11T09:02:10.790Z,101722.20
2018-12-11T09:04:38.179Z,101715.45
2018-12-11T09:07:05.562Z,101714.84
2018-12-11T09:09:32.950Z,101725.09
2018-12-11T09:12:03.632Z,101724.45
2018-12-11T09:14:40.772Z,101729.03
2018-12-11T09:17:10.204Z,101737.30
2018-12-11T09:19:37.546Z,101730.27
2018-12-11T09:22:08.477Z,101729.05
2018-12-11T09:24:42.528Z,101736.33
2018-12-11T09:27:11.658Z,101737.53
2018-12-11T09:29:45.324Z,101739.56
2018-12-11T09:32:18.512Z,101744.99
2018-12-11T09:34:47.713Z,101743.30
2018-12-11T09:37:21.541Z,101734.20
2018-12-11T09:39:55.430Z,101739.83
2018-12-11T09:42:29.448Z,101739.91
2018-12-11T09:45:14.589Z,101739.97
2018-12-11T09:47:47.782Z,101742.47
2018-12-11T09:50:19.868Z,101736.13
2018-12-11T09:52:50.952Z,101743.49
2018-12-11T09:55:24.844Z,101742.73
2018-12-11T09:57:58.760Z,101739.80
2018-12-11T10:00:30.807Z,101735.42
2018-12-11T10:03:01.769Z,101733.85
2018-12-11T10:05:32.773Z,101723.20
2018-12-11T10:08:03.836Z,101729.50
2018-12-11T10:10:32.940Z,101718.89
2018-12-11T10:13:11.769Z,101721.80
2018-12-11T10:15:44.859Z,101713.73
2018-12-11T10:20:51.134Z,101721.88
2018-12-11T10:23:20.326Z,101717.47
2018-12-11T10:25:55.980Z,101717.03
2018-12-11T10:28:31.162Z,101730.91
2018-12-11T10:31:05.060Z,101729.45
2018-12-11T10:33:37.259Z,101726.73
2018-12-11T10:36:06.382Z,101734.50
2018-12-11T10:38:35.407Z,101729.52
2018-12-11T10:41:06.287Z,101730.97
2018-12-11T10:43:40.083Z,101728.36
2018-12-11T10:46:13.306Z,101744.63
2018-12-11T10:48:48.469Z,101751.18
2018-12-11T10:51:28.680Z,101741.26
2018-12-11T10:54:02.583Z,101735.30
2018-12-11T10:59:35.676Z,101733.05
2018-12-11T11:02:18.284Z,101730.38
2018-12-11T11:04:51.656Z,101724.59
2018-12-11T11:07:22.701Z,101726.98
2018-12-11T11:09:54.857Z,101720.05
2018-12-11T11:12:25.953Z,101721.29
2018-12-11T11:14:59.953Z,101714.27
2018-12-11T11:17:33.815Z,101732.77
2018-12-11T11:22:37.048Z,101732.99
2018-12-11T11:25:07.961Z,101729.97
2018-12-11T11:27:41.492Z,101735.34
2018-12-11T11:30:15.261Z,101723.69
2018-12-11T11:32:48.363Z,101729.05
2018-12-11T11:35:29.009Z,101725.05
2018-12-11T11:38:02.416Z,101721.67
2018-12-11T11:40:35.472Z,101713.44
2018-12-11T11:43:09.444Z,101728.77
2018-12-11T11:45:47.135Z,101723.70
2018-12-11T11:48:21.282Z,101723.80
2018-12-11T11:50:55.291Z,101721.94
2018-12-11T11:53:42.055Z,101719.43
2018-12-11T11:56:15.636Z,101708.61
2018-12-11T11:58:43.031Z,101708.26
2018-12-11T12:04:24.562Z,101706.31
2018-12-11T12:06:58.541Z,101710.36
2018-12-11T12:09:32.138Z,101698.91
2018-12-11T12:15:02.147Z,101695.63
2018-12-11T12:32:30.805Z,101691.21
2018-12-11T12:35:04.585Z,101682.48
2018-12-11T12:40:32.428Z,101689.70
2018-12-11T12:43:16.220Z,101681.88
2018-12-11T12:45:47.481Z,101683.55
2018-12-11T12:48:14.868Z,101688.06
2018-12-11T12:51:00.685Z,101689.35
2018-12-11T12:56:33.393Z,101679.64
2018-12-11T12:59:07.336Z,101684.39
2018-12-11T13:01:41.139Z,101681.39
2018-12-11T13:04:11.466Z,101672.61
2018-12-11T13:06:40.831Z,101675.08
2018-12-11T13:09:14.816Z,101671.53
2018-12-11T13:11:43.497Z,101666.22
2018-12-11T13:14:12.550Z,101677.48
2018-12-11T13:16:43.540Z,101672.67
2018-12-11T13:22:17.925Z,101664.88
2018-12-11T13:24:51.239Z,101673.55
2018-12-11T13:27:22.391Z,101672.15
2018-12-11T13:29:56.119Z,101674.34
2018-12-11T13:32:27.353Z,101672.28
2018-12-11T13:34:58.452Z,101663.94
2018-12-11T13:37:32.217Z,101669.31
2018-12-11T13:40:01.449Z,101668.77
2018-12-11T13:42:37.204Z,101663.74
2018-12-11T13:45:06.749Z,101665.14
2018-12-11T13:47:37.445Z,101662.85
2018-12-11T13:50:08.648Z,101666.94
2018-12-11T13:52:39.906Z,101667.62
2018-12-11T13:55:15.176Z,101664.44
2018-12-11T14:00:54.873Z,101669.67
2018-12-11T14:03:28.271Z,101673.95
2018-12-11T14:06:02.249Z,101680.95
2018-12-11T14:08:33.364Z,101676.17
2018-12-11T14:11:06.549Z,101679.42
2018-12-11T14:13:40.266Z,101679.66
2018-12-11T14:16:14.297Z,101686.30
2018-12-11T14:18:47.692Z,101685.89
2018-12-11T14:21:19.020Z,101680.95
2018-12-11T14:26:24.693Z,101681.69
2018-12-11T14:29:02.496Z,101685.70
2018-12-11T14:31:36.078Z,101677.26
2018-12-11T14:34:10.790Z,101676.53
2018-12-11T14:36:40.234Z,101673.94
2018-12-11T14:39:09.505Z,101669.20
2018-12-11T14:41:44.102Z,101667.63
2018-12-11T14:44:17.175Z,101669.92
2018-12-11T14:46:48.409Z,101661.76
2018-12-11T14:49:22.209Z,101669.69
2018-12-11T14:51:53.627Z,101665.72
2018-12-11T14:54:27.369Z,101660.94
2018-12-11T14:57:01.296Z,101676.79
2018-12-11T14:59:32.520Z,101682.08
2018-12-11T15:02:07.365Z,101681.89
2018-12-11T15:04:40.437Z,101673.45
2018-12-11T15:07:11.436Z,101660.39
2018-12-11T15:09:47.325Z,101669.90
2018-12-11T15:12:25.140Z,101678.08
2018-12-11T15:14:56.330Z,101681.45
2018-12-11T15:17:29.916Z,101677.08
2018-12-11T15:20:00.244Z,101678.79
2018-12-11T15:22:34.288Z,101678.30
2018-12-11T15:25:16.099Z,101679.91
2018-12-11T15:30:22.169Z,101680.81
2018-12-11T15:32:55.832Z,101677.00
2018-12-11T15:35:29.033Z,101678.46
2018-12-11T15:38:10.272Z,101683.07
2018-12-11T15:40:41.023Z,101677.81
2018-12-11T15:43:16.064Z,101683.45
2018-12-11T15:45:52.017Z,101690.17
2018-12-11T15:48:21.200Z,101685.88
2018-12-11T15:50:50.016Z,101685.10
2018-12-11T15:53:19.799Z,101680.77
2018-12-11T15:58:51.762Z,101682.02
2018-12-11T16:01:32.825Z,101671.26
2018-12-11T16:04:03.321Z,101676.61
2018-12-11T16:06:36.892Z,101674.64
2018-12-11T16:09:10.985Z,101673.84
2018-12-11T16:11:41.532Z,101673.97
2018-12-11T16:14:11.691Z,101670.34
2018-12-11T16:16:43.726Z,101669.34
2018-12-11T16:19:12.949Z,101673.31
2018-12-11T16:21:43.860Z,101674.63
2018-12-11T16:24:15.092Z,101668.98
2018-12-11T16:26:46.004Z,101669.48
2018-12-11T16:34:48.909Z,101675.44
2018-12-11T16:37:20.684Z,101674.50
2018-12-11T16:39:51.184Z,101678.05
2018-12-11T16:48:18.137Z,101683.31
2018-12-11T16:53:49.876Z,101683.88
2018-12-11T16:56:19.004Z,101697.40
2018-12-11T16:58:52.596Z,101688.41
2018-12-11T17:01:31.400Z,101693.53
2018-12-11T17:04:00.557Z,101691.36
2018-12-11T17:06:35.857Z,101698.66
2018-12-11T17:09:11.384Z,101699.38
2018-12-11T17:11:42.559Z,101699.45
2018-12-11T17:14:17.384Z,101707.05
2018-12-11T17:16:51.208Z,101712.45
2018-12-11T17:19:25.134Z,101714.71
2018-12-11T17:21:56.323Z,101709.36
2018-12-11T17:24:25.547Z,101712.42
2018-12-11T17:26:59.532Z,101713.08
2018-12-11T17:29:33.553Z,101717.30
2018-12-11T17:32:04.476Z,101716.62
2018-12-11T17:34:36.519Z,101729.03
2018-12-11T17:37:11.753Z,101729.53
2018-12-11T17:39:42.652Z,101721.57
2018-12-11T17:42:23.020Z,101721.25
2018-12-11T17:44:53.812Z,101721.59
2018-12-11T17:47:28.442Z,101721.41
2018-12-11T17:53:01.883Z,101718.83
2018-12-11T17:55:32.191Z,101719.96
2018-12-11T17:58:03.130Z,101725.39
2018-12-11T18:00:30.789Z,101728.45
2018-12-11T18:06:15.038Z,101729.88
2018-12-11T18:08:52.070Z,101735.23
2018-12-11T18:11:22.593Z,101734.22
2018-12-11T18:13:56.389Z,101723.74
2018-12-11T18:16:26.711Z,101733.02
2018-12-11T18:18:54.105Z,101731.70
2018-12-11T18:21:25.071Z,101734.75
2018-12-11T18:29:47.025Z,101739.92
2018-12-11T18:32:24.909Z,101735.91
2018-12-11T18:35:02.925Z,101742.86
2018-12-11T18:37:51.501Z,101742.78
2018-12-11T18:43:28.217Z,101755.77
2018-12-11T18:46:01.425Z,101758.16
2018-12-11T18:48:37.300Z,101754.06
2018-12-11T18:51:11.219Z,101757.14
2018-12-11T18:53:41.630Z,101762.73
2018-12-11T18:56:13.813Z,101761.14
2018-12-11T18:58:44.738Z,101766.90
2018-12-11T19:01:15.776Z,101764.88
2018-12-11T19:03:50.272Z,101767.05
2018-12-11T19:06:23.592Z,101757.47
2018-12-11T19:08:58.579Z,101764.59
2018-12-11T19:11:37.332Z,101765.78
2018-12-11T19:14:18.561Z,101765.14
2018-12-11T19:16:52.533Z,101769.04
2018-12-11T19:19:26.385Z,101770.09
2018-12-11T19:24:58.645Z,101768.36
2018-12-11T19:27:29.084Z,101767.78
2018-12-11T19:29:56.544Z,101767.82
2018-12-11T19:32:29.156Z,101764.19
2018-12-11T19:34:58.233Z,101766.63
2018-12-11T19:37:29.349Z,101767.72
2018-12-11T19:40:09.774Z,101759.88
2018-12-11T19:42:44.424Z,101764.73
2018-12-11T19:45:13.423Z,101762.22
2018-12-11T19:47:47.116Z,101757.17
2018-12-11T19:50:20.235Z,101757.27
2018-12-11T19:52:50.955Z,101761.27
2018-12-11T19:55:24.557Z,101754.72
2018-12-11T19:57:59.844Z,101753.46
2018-12-11T20:00:42.404Z,101752.81
2018-12-11T20:03:15.814Z,101747.59
2018-12-11T20:05:49.228Z,101748.47
2018-12-11T20:08:17.559Z,101746.98
2018-12-11T20:10:52.800Z,101755.41
2018-12-11T20:16:41.931Z,101753.73
2018-12-11T20:28:04.920Z,101765.05
2018-12-11T20:30:41.885Z,101770.22
2018-12-11T20:33:09.342Z,101770.80
2018-12-11T20:35:36.711Z,101777.09
2018-12-11T20:38:04.105Z,101774.41
2018-12-11T20:40:52.263Z,101783.64
2018-12-11T20:43:34.550Z,101781.18
2018-12-11T20:49:00.628Z,101783.05
2018-12-11T20:54:27.367Z,101771.98
2018-12-11T20:57:05.472Z,101774.95
2018-12-11T21:02:28.793Z,101767.16
2018-12-11T21:08:01.182Z,101761.61
2018-12-11T21:10:28.570Z,101755.95
2018-12-11T21:12:55.968Z,101753.45
2018-12-11T21:15:23.364Z,101752.45
2018-12-11T21:18:13.828Z,101759.06
2018-12-11T21:21:00.035Z,101764.44
2018-12-11T21:23:51.928Z,101768.66
2018-12-11T21:26:20.270Z,101772.22
2018-12-11T21:28:54.220Z,101770.70
2018-12-11T21:31:32.967Z,101771.11
2018-12-11T21:36:59.011Z,101780.11
2018-12-11T21:39:33.109Z,101777.85
2018-12-11T21:42:03.983Z,101783.56
2018-12-11T21:44:32.351Z,101772.14
2018-12-11T21:47:05.840Z,101767.48
2018-12-11T21:49:39.212Z,101767.06
2018-12-11T21:52:12.556Z,101775.48
2018-12-11T21:54:39.941Z,101767.35
2018-12-11T21:57:08.272Z,101768.17
2018-12-11T21:59:37.583Z,101772.16
2018-12-11T22:02:10.652Z,101768.05
2018-12-11T22:04:49.469Z,101765.68
2018-12-11T22:07:22.673Z,101761.64
2018-12-11T22:10:07.339Z,101765.09
2018-12-11T22:12:40.703Z,101759.63
2018-12-11T22:15:09.456Z,101766.20
2018-12-11T22:17:40.181Z,101759.15
2018-12-11T22:20:15.183Z,101766.11
2018-12-11T22:22:45.533Z,101768.87
2018-12-11T22:25:19.541Z,101765.37
2018-12-11T22:27:53.417Z,101760.67
2018-12-11T22:30:24.587Z,101769.72
2018-12-11T22:33:03.580Z,101773.63
2018-12-11T22:35:33.910Z,101776.66
2018-12-11T22:38:06.929Z,101771.84
2018-12-11T22:40:40.688Z,101776.75
2018-12-11T22:43:09.894Z,101777.44
2018-12-11T22:45:38.786Z,101785.77
2018-12-11T22:48:09.916Z,101785.47
2018-12-11T22:50:43.820Z,101783.70
2018-12-11T22:53:17.710Z,101787.73
2018-12-11T22:55:49.023Z,101781.70
2018-12-11T22:58:22.997Z,101787.61
2018-12-11T23:00:53.274Z,101787.56
2018-12-11T23:03:27.102Z,101786.28
2018-12-11T23:06:06.053Z,101784.50
2018-12-11T23:08:39.289Z,101788.28
2018-12-11T23:11:09.804Z,101786.55
2018-12-11T23:13:40.964Z,101785.11
2018-12-11T23:16:12.004Z,101781.84
2018-12-11T23:18:45.928Z,101785.11
2018-12-11T23:21:19.039Z,101782.69
2018-12-11T23:23:52.163Z,101781.25
2018-12-11T23:26:23.475Z,101792.91
2018-12-11T23:28:56.904Z,101797.72
2018-12-11T23:31:33.356Z,101793.23
2018-12-11T23:34:02.180Z,101790.36
2018-12-11T23:36:35.976Z,101792.91
2018-12-11T23:39:13.067Z,101799.20
2018-12-11T23:41:44.175Z,101795.40
2018-12-11T23:44:13.284Z,101799.41
2018-12-11T23:46:42.453Z,101792.77
2018-12-11T23:49:15.677Z,101793.16
2018-12-11T23:51:55.630Z,101790.50
2018-12-11T23:54:24.837Z,101779.43
2018-12-11T23:56:58.044Z,101780.59
2018-12-11T23:59:32.128Z,101781.89
